Time;durP1;ratioP1;P1;durP2;ratioP2;P2;SDS_P1;SDS_P2;PMS_P1;PMS_P2;Temp;Humidity;BMP_temperature;BMP_pressure;BME280_temperature;BME280_humidity;BME280_pressure;Samples;Min_cycle;Max_cycle;Signal;HPM_P1;HPM_P2
2023/03/05 00:02:06;;;;;;;42.97;24.70;;;0.60;99.90;;;;;;5094985;28;20392;-77
2023/03/05 00:04:32;;;;;;;41.67;25.43;;;0.50;99.90;;;;;;5094654;28;20386;-78
2023/03/05 00:06:57;;;;;;;43.73;25.40;;;0.60;99.90;;;;;;5094694;28;20394;-77
2023/03/05 00:09:23;;;;;;;38.97;24.03;;;0.70;99.90;;;;;;5095221;28;20863;-77
2023/03/05 00:11:48;;;;;;;41.67;24.13;;;1.40;99.90;;;;;;5094998;28;20385;-77
2023/03/05 00:14:14;;;;;;;41.73;24.60;;;0.70;99.90;;;;;;5095588;28;20410;-77
2023/03/05 00:16:40;;;;;;;44.40;25.20;;;2.40;99.90;;;;;;5094277;28;20918;-78
2023/03/05 00:19:06;;;;;;;45.45;25.05;;;0.90;99.90;;;;;;5094447;28;20433;-77
2023/03/05 00:21:37;;;;;;;45.78;25.05;;;0.50;99.90;;;;;;5093572;28;20386;-78
2023/03/05 00:24:07;;;;;;;49.10;26.05;;;0.60;99.90;;;;;;5094890;28;20393;-77
2023/03/05 00:26:35;;;;;;;44.45;25.55;;;0.70;99.90;;;;;;5094554;28;20374;-78
2023/03/05 00:29:00;;;;;;;43.60;24.40;;;1.00;99.90;;;;;;5094635;28;20390;-78
2023/03/05 00:31:29;;;;;;;41.10;23.38;;;1.00;99.90;;;;;;5093539;28;20389;-77
2023/03/05 00:33:57;;;;;;;41.15;24.75;;;1.10;99.90;;;;;;5093566;28;20402;-77
2023/03/05 00:36:23;;;;;;;44.38;24.60;;;1.60;99.90;;;;;;5098256;28;20469;-77
2023/03/05 00:38:49;;;;;;;43.17;24.85;;;2.00;99.90;;;;;;5098101;28;20410;-77
2023/03/05 00:41:14;;;;;;;40.15;24.73;;;1.20;99.90;;;;;;5097071;28;20472;-78
2023/03/05 00:43:40;;;;;;;41.35;25.25;;;1.80;99.90;;;;;;5096057;28;20378;-77
2023/03/05 00:46:05;;;;;;;43.50;26.70;;;1.50;99.90;;;;;;5094301;28;20451;-77
2023/03/05 00:48:31;;;;;;;43.40;25.47;;;1.30;99.90;;;;;;5093352;28;20875;-78
2023/03/05 00:50:56;;;;;;;47.30;26.80;;;0.80;99.90;;;;;;5095071;28;20883;-77
2023/03/05 00:53:22;;;;;;;42.20;24.50;;;0.80;99.90;;;;;;5094960;28;20873;-77
2023/03/05 00:55:47;;;;;;;45.80;25.53;;;1.00;99.90;;;;;;5094164;28;20548;-77
2023/03/05 00:58:13;;;;;;;45.97;25.77;;;1.30;99.90;;;;;;5095485;28;20453;-77
2023/03/05 01:00:38;;;;;;;38.17;24.67;;;1.40;99.90;;;;;;5096328;28;20525;-77
2023/03/05 01:03:04;;;;;;;42.40;24.63;;;0.70;99.90;;;;;;5095878;28;20397;-78
2023/03/05 01:05:30;;;;;;;43.95;25.70;;;0.60;99.90;;;;;;5095691;28;20405;-78
2023/03/05 01:07:56;;;;;;;41.95;26.00;;;1.20;99.90;;;;;;5096737;28;20460;-78
2023/03/05 01:10:25;;;;;;;44.78;25.50;;;1.30;99.90;;;;;;5097767;28;20373;-77
2023/03/05 01:12:51;;;;;;;42.17;25.23;;;0.60;99.90;;;;;;5098021;28;20386;-78
2023/03/05 01:15:17;;;;;;;45.85;26.80;;;0.60;99.90;;;;;;5093552;28;20390;-78
2023/03/05 01:17:43;;;;;;;41.30;24.08;;;0.90;99.90;;;;;;5115427;28;20427;-77
2023/03/05 01:20:12;;;;;;;42.70;23.85;;;1.10;99.90;;;;;;5116913;28;20402;-78
2023/03/05 01:22:38;;;;;;;42.15;24.50;;;0.70;99.90;;;;;;5102230;28;20459;-78
2023/03/05 01:25:04;;;;;;;46.28;25.17;;;0.60;99.90;;;;;;5093057;28;20464;-78
2023/03/05 01:27:30;;;;;;;44.92;24.48;;;0.90;99.90;;;;;;5093074;28;20878;-78
2023/03/05 01:29:55;;;;;;;41.70;25.58;;;0.60;99.90;;;;;;5093458;28;20414;-78
2023/03/05 01:32:21;;;;;;;44.00;23.38;;;0.80;99.90;;;;;;5093296;28;20451;-78
2023/03/05 01:34:46;;;;;;;45.00;23.67;;;0.50;99.90;;;;;;5092648;28;20527;-78
2023/03/05 01:37:13;;;;;;;45.65;24.70;;;;;;;;;;5093623;28;20819;-78
2023/03/05 01:39:39;;;;;;;41.30;23.90;;;0.60;99.90;;;;;;5092585;28;20402;-79
2023/03/05 01:42:05;;;;;;;38.47;22.40;;;0.70;99.90;;;;;;5094093;28;20737;-78
2023/03/05 01:44:31;;;;;;;43.90;22.83;;;;;;;;;;5092291;28;20386;-78
2023/03/05 01:46:57;;;;;;;41.30;22.48;;;0.30;99.90;;;;;;5093497;28;20867;-78
2023/03/05 01:49:32;;;;;;;37.75;21.27;;;1.20;99.90;;;;;;5094048;28;20390;-78
2023/03/05 01:52:18;;;;;;;42.00;23.10;;;0.40;99.90;;;;;;5092693;28;20382;-78
2023/03/05 01:54:49;;;;;;;40.05;21.88;;;0.60;99.90;;;;;;5077314;28;20852;-78
2023/03/05 01:57:20;;;;;;;37.00;22.27;;;0.60;99.90;;;;;;5091997;28;20480;-78
2023/03/05 01:59:49;;;;;;;36.20;20.83;;;0.50;99.90;;;;;;5091997;28;20424;-78
2023/03/05 02:02:17;;;;;;;42.35;22.60;;;1.10;99.90;;;;;;5093622;28;20430;-78
2023/03/05 02:04:50;;;;;;;36.05;20.70;;;0.60;99.90;;;;;;5093598;28;20518;-78
2023/03/05 02:07:17;;;;;;;33.42;20.13;;;0.50;99.90;;;;;;5092974;28;20444;-78
2023/03/05 02:09:42;;;;;;;35.15;19.17;;;0.50;99.90;;;;;;5093265;28;20744;-78
2023/03/05 02:12:10;;;;;;;36.17;19.23;;;0.50;99.90;;;;;;5093431;28;20382;-78
2023/03/05 02:14:36;;;;;;;35.90;21.15;;;0.50;99.90;;;;;;5093485;28;20393;-78
2023/03/05 02:17:01;;;;;;;33.67;19.20;;;0.90;99.90;;;;;;5092651;28;20482;-78
2023/03/05 02:19:27;;;;;;;35.57;20.53;;;0.40;99.90;;;;;;5092479;28;20417;-78
2023/03/05 02:21:53;;;;;;;32.25;18.65;;;0.90;99.90;;;;;;5092699;28;20457;-79
2023/03/05 02:24:39;;;;;;;27.70;16.38;;;0.60;99.90;;;;;;5092215;28;20378;-78
2023/03/05 02:27:05;;;;;;;28.98;16.77;;;0.60;99.90;;;;;;5091050;28;20839;-78
2023/03/05 02:29:31;;;;;;;30.55;17.05;;;0.50;99.90;;;;;;5091510;28;20382;-78
2023/03/05 02:31:57;;;;;;;26.13;16.13;;;0.60;99.90;;;;;;5092352;28;20390;-78
2023/03/05 02:34:22;;;;;;;27.52;16.75;;;1.00;99.90;;;;;;5091830;28;20455;-79
2023/03/05 02:36:49;;;;;;;27.17;16.97;;;0.60;99.90;;;;;;5092097;28;20443;-78
2023/03/05 02:39:15;;;;;;;27.50;16.02;;;1.00;99.90;;;;;;5092097;28;20423;-78
2023/03/05 02:41:41;;;;;;;29.88;16.85;;;0.70;99.90;;;;;;5092751;28;20852;-78
2023/03/05 02:44:07;;;;;;;28.47;17.70;;;0.60;99.90;;;;;;5092297;28;20580;-78
2023/03/05 02:46:33;;;;;;;33.45;18.90;;;0.30;99.90;;;;;;5091973;28;20374;-78
2023/03/05 02:48:58;;;;;;;24.90;16.13;;;0.70;99.90;;;;;;5091456;28;20393;-78
2023/03/05 02:51:24;;;;;;;29.23;15.70;;;0.10;99.90;;;;;;5093037;28;20899;-78
2023/03/05 02:53:49;;;;;;;27.75;16.67;;;1.00;99.90;;;;;;5097842;28;20378;-78
2023/03/05 02:56:15;;;;;;;25.63;16.45;;;0.80;99.90;;;;;;5097206;28;20386;-78
2023/03/05 02:58:40;;;;;;;25.50;16.57;;;0.50;99.90;;;;;;5097688;28;20406;-78
2023/03/05 03:01:08;;;;;;;26.70;16.90;;;1.40;99.90;;;;;;5096693;28;20476;-79
2023/03/05 03:03:33;;;;;;;29.33;16.98;;;0.40;99.90;;;;;;5095817;28;20374;-78
2023/03/05 03:05:59;;;;;;;29.45;18.70;;;0.30;99.90;;;;;;5092403;28;20451;-78
2023/03/05 03:08:24;;;;;;;33.95;19.63;;;0.70;99.90;;;;;;5092552;28;20400;-79
2023/03/05 03:10:50;;;;;;;31.48;19.15;;;1.50;99.90;;;;;;5110763;28;20458;-78
2023/03/05 03:13:16;;;;;;;31.90;18.73;;;0.00;99.90;;;;;;5114494;28;20382;-78
2023/03/05 03:15:41;;;;;;;35.50;22.27;;;0.00;99.90;;;;;;5109056;28;20385;-79
2023/03/05 03:18:07;;;;;;;35.70;20.87;;;0.40;99.90;;;;;;5096726;28;20388;-78
2023/03/05 03:20:33;;;;;;;33.60;18.80;;;0.10;99.90;;;;;;5091875;28;20435;-78
2023/03/05 03:22:59;;;;;;;33.08;19.58;;;-0.30;99.90;;;;;;5091214;28;20390;-78
2023/03/05 03:25:25;;;;;;;30.30;18.02;;;0.20;99.90;;;;;;5092211;28;20401;-78
2023/03/05 03:27:51;;;;;;;31.58;18.05;;;0.00;99.90;;;;;;5091852;28;20386;-78
2023/03/05 03:30:16;;;;;;;29.37;18.80;;;0.40;99.90;;;;;;5090952;28;20906;-78
2023/03/05 03:32:42;;;;;;;33.47;19.60;;;0.40;99.90;;;;;;5090090;28;20389;-79
2023/03/05 03:35:08;;;;;;;34.17;18.30;;;0.00;99.90;;;;;;5091668;28;20746;-78
2023/03/05 03:37:34;;;;;;;33.92;18.90;;;0.00;99.90;;;;;;5091748;28;20391;-78
2023/03/05 03:40:00;;;;;;;32.88;18.60;;;-0.10;99.90;;;;;;5090164;28;20841;-78
2023/03/05 03:42:25;;;;;;;31.17;17.75;;;0.10;99.90;;;;;;5092100;28;20478;-78
2023/03/05 03:44:51;;;;;;;31.83;18.08;;;-0.10;99.90;;;;;;5091683;28;20427;-78
2023/03/05 03:47:17;;;;;;;28.55;16.50;;;0.20;99.90;;;;;;5091452;28;20390;-78
2023/03/05 03:49:43;;;;;;;29.33;17.48;;;0.20;99.90;;;;;;5091588;28;20899;-79
2023/03/05 03:52:08;;;;;;;31.65;18.35;;;0.00;99.90;;;;;;5091743;28;20394;-78
2023/03/05 03:54:35;;;;;;;31.35;18.30;;;0.00;99.90;;;;;;5090899;28;20912;-78
2023/03/05 03:57:01;;;;;;;29.58;16.17;;;0.00;99.90;;;;;;5091368;28;20880;-79
2023/03/05 03:59:26;;;;;;;25.43;15.90;;;0.20;99.90;;;;;;5091257;28;20409;-78
2023/03/05 04:01:52;;;;;;;29.87;17.13;;;0.20;99.90;;;;;;5091503;28;20400;-78
2023/03/05 04:04:17;;;;;;;28.93;16.50;;;-0.10;99.90;;;;;;5091555;28;20382;-78
2023/03/05 04:06:43;;;;;;;27.53;17.37;;;0.10;99.90;;;;;;5090730;28;20394;-78
2023/03/05 04:09:08;;;;;;;26.20;16.57;;;0.70;99.90;;;;;;5090001;28;20405;-79
2023/03/05 04:11:35;;;;;;;25.47;15.50;;;0.70;99.90;;;;;;5091023;28;20408;-78
2023/03/05 04:14:01;;;;;;;26.83;15.50;;;-0.20;99.90;;;;;;5091484;28;20851;-78
2023/03/05 04:16:27;;;;;;;23.23;15.82;;;0.30;99.90;;;;;;5090895;28;20385;-78
2023/03/05 04:18:52;;;;;;;28.27;16.10;;;0.10;99.90;;;;;;5090995;28;20843;-78
2023/03/05 04:21:18;;;;;;;27.93;16.63;;;0.60;99.90;;;;;;5091168;28;20393;-78
2023/03/05 04:23:43;;;;;;;26.23;15.27;;;0.30;99.90;;;;;;5091243;28;20392;-78
2023/03/05 04:26:09;;;;;;;25.93;15.97;;;0.20;99.90;;;;;;5094866;28;20454;-78
2023/03/05 04:28:35;;;;;;;25.83;15.50;;;0.80;99.90;;;;;;5099464;28;20382;-78
2023/03/05 04:31:00;;;;;;;25.02;15.65;;;0.00;99.90;;;;;;5092337;28;20475;-79
2023/03/05 04:33:26;;;;;;;26.45;16.25;;;0.30;99.90;;;;;;5089983;28;20884;-78
2023/03/05 04:35:52;;;;;;;25.00;14.60;;;0.30;99.90;;;;;;5091410;28;20984;-78
2023/03/05 04:38:17;;;;;;;21.50;13.88;;;0.40;99.90;;;;;;5091460;28;20907;-78
2023/03/05 04:40:44;;;;;;;25.80;14.90;;;0.00;99.90;;;;;;5091989;28;20378;-79
2023/03/05 04:43:10;;;;;;;23.80;14.45;;;0.30;99.90;;;;;;5091368;28;20393;-78
2023/03/05 04:45:39;;;;;;;20.17;13.90;;;0.00;99.90;;;;;;5095348;28;20780;-78
2023/03/05 04:48:05;;;;;;;23.70;14.13;;;0.40;99.90;;;;;;5095344;28;20751;-79
2023/03/05 04:50:30;;;;;;;23.75;14.52;;;0.00;99.90;;;;;;5095394;28;20378;-78
2023/03/05 04:52:56;;;;;;;23.10;13.60;;;0.00;99.90;;;;;;5094944;28;20382;-78
2023/03/05 04:55:21;;;;;;;21.70;13.50;;;-0.10;99.90;;;;;;5094960;28;20861;-78
2023/03/05 04:57:47;;;;;;;22.42;13.32;;;0.50;99.90;;;;;;5093539;28;20786;-79
2023/03/05 05:00:14;;;;;;;26.70;13.40;;;0.10;99.90;;;;;;5095299;28;20402;-79
2023/03/05 05:02:44;;;;;;;19.73;13.47;;;0.00;99.90;;;;;;5099167;28;20388;-78
2023/03/05 05:05:13;;;;;;;25.63;14.45;;;0.10;99.90;;;;;;5119470;28;20394;-78
2023/03/05 05:07:39;;;;;;;22.05;13.68;;;0.00;99.90;;;;;;5095049;28;20390;-79
2023/03/05 05:10:06;;;;;;;21.38;13.60;;;0.10;99.90;;;;;;5076856;28;20423;-78
2023/03/05 05:12:33;;;;;;;23.38;13.30;;;0.40;99.90;;;;;;5075106;28;20376;-79
2023/03/05 05:14:59;;;;;;;20.55;13.45;;;0.10;99.90;;;;;;5074046;28;20387;-79
2023/03/05 05:17:25;;;;;;;20.58;13.05;;;0.20;99.90;;;;;;5078942;28;20459;-79
2023/03/05 05:19:50;;;;;;;20.23;12.98;;;0.60;99.90;;;;;;5095290;28;20884;-79
2023/03/05 05:22:16;;;;;;;21.45;13.23;;;0.80;99.90;;;;;;5094256;28;20386;-79
2023/03/05 05:24:41;;;;;;;20.85;12.93;;;0.40;99.90;;;;;;5093441;28;20827;-79
2023/03/05 05:27:07;;;;;;;21.67;13.57;;;0.80;99.90;;;;;;5094617;28;20751;-79
2023/03/05 05:29:33;;;;;;;19.95;13.13;;;0.60;99.90;;;;;;5095184;28;20397;-78
2023/03/05 05:31:58;;;;;;;22.85;14.40;;;1.10;99.90;;;;;;5094061;28;20759;-79
2023/03/05 05:34:24;;;;;;;20.55;12.50;;;0.70;99.90;;;;;;5095235;28;20400;-79
2023/03/05 05:36:50;;;;;;;20.13;13.20;;;0.50;99.90;;;;;;5095001;28;20468;-78
2023/03/05 05:39:16;;;;;;;20.15;11.80;;;0.70;99.90;;;;;;5093325;28;20584;-78
2023/03/05 05:41:42;;;;;;;17.65;11.70;;;0.90;99.90;;;;;;5094610;28;20428;-78
2023/03/05 05:44:07;;;;;;;19.10;12.00;;;0.60;99.90;;;;;;5094418;28;20386;-78
2023/03/05 05:46:33;;;;;;;22.30;12.67;;;1.00;99.90;;;;;;5092681;28;20387;-79
2023/03/05 05:48:58;;;;;;;20.87;12.03;;;0.40;99.90;;;;;;5093211;28;20879;-78
2023/03/05 05:51:24;;;;;;;20.97;12.63;;;0.90;99.90;;;;;;5094049;28;20398;-79
2023/03/05 05:53:50;;;;;;;19.53;11.80;;;0.60;99.90;;;;;;5093779;28;20406;-78
2023/03/05 05:56:16;;;;;;;20.45;11.77;;;1.00;99.90;;;;;;5092463;28;20417;-78
2023/03/05 05:58:43;;;;;;;20.47;12.60;;;0.60;99.90;;;;;;5094209;28;20975;-79
2023/03/05 06:01:26;;;;;;;19.83;12.88;;;1.10;99.90;;;;;;5094408;28;20382;-78
2023/03/05 06:03:52;;;;;;;19.98;12.15;;;1.00;99.90;;;;;;5096991;28;20426;-78
2023/03/05 06:06:20;;;;;;;20.77;12.00;;;0.90;99.90;;;;;;5094484;28;20382;-78
2023/03/05 06:08:46;;;;;;;19.88;12.55;;;1.10;99.90;;;;;;5094039;28;20487;-79
2023/03/05 06:11:11;;;;;;;20.77;12.73;;;1.10;99.90;;;;;;5094429;28;20392;-78
2023/03/05 06:13:37;;;;;;;20.48;12.65;;;0.60;99.90;;;;;;5094035;28;20386;-78
2023/03/05 06:16:06;;;;;;;20.20;12.25;;;0.50;99.90;;;;;;5093656;28;20418;-79
2023/03/05 06:18:33;;;;;;;19.17;11.95;;;0.70;99.90;;;;;;5092457;28;20425;-78
2023/03/05 06:21:01;;;;;;;18.42;12.10;;;0.80;99.90;;;;;;5094083;28;20383;-78
2023/03/05 06:23:27;;;;;;;18.45;12.02;;;0.90;99.90;;;;;;5092143;28;20474;-78
2023/03/05 06:25:54;;;;;;;18.75;11.70;;;1.10;99.90;;;;;;5093340;28;20431;-78
2023/03/05 06:28:20;;;;;;;17.10;11.85;;;1.10;99.90;;;;;;5092701;28;20401;-78
2023/03/05 06:30:46;;;;;;;22.10;13.73;;;1.00;99.90;;;;;;5093502;28;20386;-78
2023/03/05 06:33:12;;;;;;;20.20;12.50;;;0.90;99.90;;;;;;5093457;28;20910;-79
2023/03/05 06:35:41;;;;;;;20.80;12.27;;;1.10;99.90;;;;;;5092788;28;20390;-78
2023/03/05 06:38:07;;;;;;;18.90;11.48;;;1.00;99.90;;;;;;5096637;28;20883;-80
2023/03/05 06:40:33;;;;;;;21.85;12.50;;;1.30;99.90;;;;;;5092935;28;20799;-78
2023/03/05 06:42:59;;;;;;;18.25;11.52;;;1.20;99.90;;;;;;5093510;28;20378;-78
2023/03/05 06:45:25;;;;;;;16.95;11.10;;;1.00;99.90;;;;;;5097019;28;20887;-78
2023/03/05 06:47:50;;;;;;;17.67;10.82;;;1.30;99.90;;;;;;5096380;28;20382;-78
2023/03/05 06:50:16;;;;;;;17.67;12.07;;;1.50;99.90;;;;;;5095149;28;20887;-79
2023/03/05 06:52:42;;;;;;;19.25;12.10;;;1.50;90.30;;;;;;5093234;28;20786;-78
2023/03/05 06:55:09;;;;;;;19.55;12.13;;;1.80;71.30;;;;;;5093188;28;20435;-78
2023/03/05 06:57:35;;;;;;;17.90;10.95;;;1.50;90.30;;;;;;5091628;28;20409;-78
2023/03/05 07:00:06;;;;;;;18.57;11.57;;;1.30;80.80;;;;;;5096564;28;20469;-78
2023/03/05 07:02:32;;;;;;;17.70;10.82;;;1.30;99.90;;;;;;5099091;28;20507;-78
2023/03/05 07:04:57;;;;;;;17.80;11.83;;;1.20;99.90;;;;;;5100146;28;20774;-78
2023/03/05 07:07:23;;;;;;;16.90;11.00;;;1.50;99.90;;;;;;5099103;28;20378;-78
2023/03/05 07:09:49;;;;;;;16.98;11.05;;;1.70;73.90;;;;;;5095750;28;20388;-77
2023/03/05 07:12:14;;;;;;;14.85;11.07;;;1.70;45.40;;;;;;5093466;28;20392;-78
2023/03/05 07:14:40;;;;;;;17.73;11.90;;;1.40;45.70;;;;;;5091755;28;20867;-78
2023/03/05 07:17:06;;;;;;;15.57;10.40;;;1.60;77.00;;;;;;5090767;28;20396;-78
2023/03/05 07:19:31;;;;;;;21.00;11.10;;;1.70;99.90;;;;;;5092092;28;20398;-78
2023/03/05 07:21:57;;;;;;;16.70;11.15;;;1.50;92.90;;;;;;5090851;28;20429;-78
2023/03/05 07:24:27;;;;;;;16.00;10.43;;;1.60;74.20;;;;;;5092462;28;20723;-78
2023/03/05 07:26:53;;;;;;;15.80;10.95;;;1.50;86.20;;;;;;5090115;28;20443;-78
2023/03/05 07:29:18;;;;;;;15.52;10.60;;;1.70;59.40;;;;;;5092667;28;20386;-78
2023/03/05 07:31:44;;;;;;;16.13;10.60;;;1.40;99.90;;;;;;5093162;28;20382;-78
2023/03/05 07:34:09;;;;;;;17.00;11.07;;;1.60;75.60;;;;;;5091767;28;20393;-78
2023/03/05 07:36:36;;;;;;;15.87;10.73;;;1.90;57.90;;;;;;5091744;28;20386;-78
2023/03/05 07:39:04;;;;;;;12.50;9.30;;;1.70;95.00;;;;;;5091836;28;20540;-78
2023/03/05 07:41:29;;;;;;;16.38;10.77;;;1.80;48.00;;;;;;5091368;28;20398;-78
2023/03/05 07:43:55;;;;;;;15.15;10.13;;;1.90;42.50;;;;;;5091363;28;20875;-78
2023/03/05 07:46:28;;;;;;;16.65;10.90;;;2.00;39.40;;;;;;5091019;28;20381;-78
2023/03/05 07:48:54;;;;;;;15.02;10.23;;;2.00;7.30;;;;;;5091913;28;20389;-78
2023/03/05 07:51:21;;;;;;;15.25;9.90;;;2.00;19.80;;;;;;5090323;28;20386;-78
2023/03/05 07:53:49;;;;;;;12.80;9.18;;;1.90;2.10;;;;;;5091640;28;20386;-78
2023/03/05 07:56:38;;;;;;;14.23;10.10;;;2.20;1.00;;;;;;5091386;28;20378;-78
2023/03/05 07:59:07;;;;;;;15.80;10.10;;;2.10;31.90;;;;;;5091627;28;20442;-78
2023/03/05 08:01:34;;;;;;;15.82;10.98;;;1.90;1.20;;;;;;5091369;28;20386;-78
2023/03/05 08:04:00;;;;;;;12.50;9.13;;;2.90;1.00;;;;;;5092211;28;20370;-78
2023/03/05 08:06:26;;;;;;;12.73;10.00;;;2.70;1.00;;;;;;5091524;28;20416;-78
2023/03/05 08:08:52;;;;;;;12.00;8.80;;;2.50;1.00;;;;;;5090673;28;20394;-78
2023/03/05 08:11:17;;;;;;;12.63;9.00;;;2.60;1.00;;;;;;5090650;28;20386;-78
2023/03/05 08:13:44;;;;;;;13.00;9.70;;;2.70;1.00;;;;;;5092204;28;20443;-78
2023/03/05 08:16:13;;;;;;;12.02;9.65;;;2.30;1.00;;;;;;5095647;28;20891;-78
2023/03/05 08:18:39;;;;;;;13.70;9.40;;;2.30;1.00;;;;;;5092475;28;20408;-78
2023/03/05 08:21:05;;;;;;;13.82;9.73;;;2.40;1.00;;;;;;5094228;28;20899;-78
2023/03/05 08:23:33;;;;;;;13.50;9.25;;;2.30;1.00;;;;;;5095393;28;20412;-78
2023/03/05 08:25:59;;;;;;;13.40;9.60;;;2.40;1.00;;;;;;5097074;28;20404;-79
2023/03/05 08:28:24;;;;;;;12.90;9.27;;;2.80;1.00;;;;;;5095792;28;20382;-78
2023/03/05 08:30:50;;;;;;;14.13;9.43;;;4.00;1.00;;;;;;5095120;28;20382;-79
2023/03/05 08:33:16;;;;;;;14.18;9.43;;;2.70;1.00;;;;;;5096260;28;20412;-79
2023/03/05 08:35:42;;;;;;;12.27;8.50;;;2.80;1.00;;;;;;5094040;28;20745;-79
2023/03/05 08:38:07;;;;;;;14.67;9.70;;;3.10;1.00;;;;;;5095431;28;20469;-79
2023/03/05 08:40:33;;;;;;;13.10;8.80;;;3.20;1.00;;;;;;5094000;28;20394;-79
2023/03/05 08:42:58;;;;;;;13.10;8.80;;;3.20;1.00;;;;;;5096003;28;20373;-79
2023/03/05 08:45:26;;;;;;;13.57;8.80;;;2.80;1.00;;;;;;5095109;28;20385;-79
2023/03/05 08:47:53;;;;;;;14.43;9.55;;;3.00;1.00;;;;;;5097788;28;20442;-79
2023/03/05 08:50:21;;;;;;;13.90;9.65;;;3.20;1.00;;;;;;5095973;28;20765;-79
2023/03/05 08:52:46;;;;;;;12.85;9.00;;;3.30;1.00;;;;;;5096383;28;20800;-79
2023/03/05 08:55:12;;;;;;;14.32;9.73;;;2.80;1.00;;;;;;5096628;28;20439;-79
2023/03/05 08:57:37;;;;;;;12.23;8.60;;;3.10;1.00;;;;;;5096129;28;20425;-78
2023/03/05 09:00:03;;;;;;;10.50;7.78;;;3.20;1.00;;;;;;5096619;28;20427;-78
2023/03/05 09:02:30;;;;;;;12.75;9.32;;;3.20;1.00;;;;;;5100122;28;20378;-78
2023/03/05 09:04:55;;;;;;;18.23;9.90;;;3.10;1.00;;;;;;5100348;28;20386;-78
2023/03/05 09:07:21;;;;;;;14.85;9.30;;;3.70;1.00;;;;;;5099666;28;20451;-78
2023/03/05 09:09:46;;;;;;;13.13;9.50;;;3.30;1.00;;;;;;5100344;28;20431;-79
2023/03/05 09:12:12;;;;;;;13.68;9.63;;;3.20;1.00;;;;;;5097148;28;20395;-79
2023/03/05 09:14:39;;;;;;;12.90;9.63;;;3.60;99.90;;;;;;5097597;28;20383;-79
2023/03/05 09:17:04;;;;;;;12.23;9.23;;;3.40;99.90;;;;;;5093889;28;20867;-79
2023/03/05 09:19:30;;;;;;;12.90;8.88;;;3.40;1.00;;;;;;5094430;28;20402;-79
2023/03/05 09:21:55;;;;;;;12.00;8.82;;;3.40;99.90;;;;;;5094746;28;20401;-79
2023/03/05 09:24:21;;;;;;;13.93;10.27;;;3.60;1.00;;;;;;5094852;28;20385;-79
2023/03/05 09:26:46;;;;;;;13.80;9.80;;;3.70;99.90;;;;;;5094890;28;20378;-79
2023/03/05 09:29:12;;;;;;;12.80;9.20;;;3.90;99.90;;;;;;5092426;28;20741;-79
2023/03/05 09:31:38;;;;;;;12.60;8.73;;;3.90;99.90;;;;;;5093200;28;20452;-79
2023/03/05 09:34:04;;;;;;;10.02;7.80;;;3.90;99.90;;;;;;5094934;28;20397;-79
2023/03/05 09:36:31;;;;;;;12.60;8.13;;;3.90;1.00;;;;;;5093473;28;20386;-79
2023/03/05 09:38:57;;;;;;;12.82;8.25;;;3.80;99.90;;;;;;5095246;28;20512;-80
2023/03/05 09:41:33;;;;;;;14.63;8.52;;;3.90;99.90;;;;;;5095142;28;20387;-79
2023/03/05 09:44:15;;;;;;;12.60;8.00;;;4.20;1.00;;;;;;5094317;28;20899;-79
2023/03/05 09:46:51;;;;;;;12.02;8.32;;;4.00;1.00;;;;;;5094256;28;20385;-79
2023/03/05 09:49:23;;;;;;;13.20;9.07;;;4.60;1.00;;;;;;5094544;28;20390;-79
2023/03/05 09:51:54;;;;;;;13.97;9.53;;;4.20;62.60;;;;;;5094898;28;20378;-79
2023/03/05 09:54:34;;;;;;;13.43;9.80;;;4.10;1.00;;;;;;5092167;28;20497;-79
2023/03/05 09:57:03;;;;;;;16.23;11.25;;;4.30;1.00;;;;;;5094840;28;20379;-79
2023/03/05 09:59:34;;;;;;;17.98;12.10;;;4.60;99.90;;;;;;5094763;28;20408;-78
2023/03/05 10:02:11;;;;;;;20.08;12.20;;;4.70;1.00;;;;;;5093284;28;20386;-79
2023/03/05 10:04:48;;;;;;;21.38;14.55;;;4.50;99.90;;;;;;5093013;28;20478;-78
2023/03/05 10:07:27;;;;;;;20.77;13.57;;;4.50;5.50;;;;;;5094713;28;20393;-79
2023/03/05 10:10:10;;;;;;;22.45;13.95;;;4.60;1.00;;;;;;5093629;28;20421;-79
2023/03/05 10:12:49;;;;;;;23.00;13.88;;;4.40;99.90;;;;;;5094289;28;20923;-78
2023/03/05 10:15:20;;;;;;;25.65;14.77;;;4.50;1.00;;;;;;5093710;28;20402;-79
2023/03/05 10:18:27;;;;;;;24.00;15.10;;;4.60;99.90;;;;;;5094246;28;20385;-79
2023/03/05 10:21:09;;;;;;;23.20;15.10;;;4.60;1.00;;;;;;5093426;28;20440;-79
2023/03/05 10:24:12;;;;;;;22.33;15.00;;;4.60;1.00;;;;;;5093718;28;20468;-78
2023/03/05 10:26:58;;;;;;;25.30;15.65;;;4.80;16.40;;;;;;5093591;28;20392;-78
2023/03/05 10:29:57;;;;;;;24.60;14.05;;;4.80;99.90;;;;;;5055508;28;20388;-79
2023/03/05 10:32:54;;;;;;;20.98;14.20;;;4.70;1.00;;;;;;5073664;28;20390;-78
2023/03/05 10:35:31;;;;;;;22.42;14.35;;;4.90;99.90;;;;;;5071652;28;20395;-79
2023/03/05 10:38:34;;;;;;;23.33;14.50;;;4.60;1.00;;;;;;5073807;28;20745;-79
2023/03/05 10:41:11;;;;;;;23.05;14.40;;;4.90;99.90;;;;;;5072736;28;20395;-79
2023/03/05 10:43:50;;;;;;;23.30;14.35;;;4.90;99.90;;;;;;5093503;28;20390;-79
2023/03/05 10:46:19;;;;;;;22.17;13.90;;;5.10;99.90;;;;;;5093274;28;20414;-78
2023/03/05 10:48:52;;;;;;;22.85;13.20;;;4.90;1.00;;;;;;5093046;28;20462;-78
2023/03/05 10:51:37;;;;;;;18.80;12.88;;;4.80;1.00;;;;;;5093164;28;20412;-78
2023/03/05 10:54:40;;;;;;;19.75;12.88;;;5.10;1.00;;;;;;5093901;28;20381;-78
2023/03/05 10:57:09;;;;;;;21.27;13.52;;;5.10;1.00;;;;;;5090406;28;20388;-78
2023/03/05 10:59:34;;;;;;;20.73;13.07;;;5.00;92.40;;;;;;5094719;28;20408;-78
2023/03/05 11:02:07;;;;;;;18.50;10.88;;;5.20;1.00;;;;;;5098208;28;20846;-78
2023/03/05 11:04:36;;;;;;;19.85;12.68;;;5.60;1.00;;;;;;5097911;28;20386;-78
2023/03/05 11:07:15;;;;;;;17.35;11.50;;;5.60;99.90;;;;;;5093674;28;20868;-79
2023/03/05 11:10:05;;;;;;;17.97;12.20;;;5.70;99.90;;;;;;5093158;28;20859;-78
2023/03/05 11:12:33;;;;;;;18.10;11.52;;;5.60;1.00;;;;;;5092800;28;20390;-78
2023/03/05 11:15:08;;;;;;;19.15;12.20;;;5.50;1.00;;;;;;5091653;28;20760;-79
2023/03/05 11:17:37;;;;;;;22.30;12.60;;;5.70;99.90;;;;;;5092139;28;20390;-79
2023/03/05 11:20:29;;;;;;;21.40;12.38;;;5.80;99.90;;;;;;5093433;28;20405;-78
2023/03/05 11:23:05;;;;;;;18.00;11.23;;;5.80;95.80;;;;;;5092738;28;20507;-78
2023/03/05 11:25:32;;;;;;;16.63;11.40;;;5.70;99.90;;;;;;5092608;28;20453;-77
2023/03/05 11:28:00;;;;;;;20.55;11.85;;;6.20;22.10;;;;;;5091744;28;20374;-77
2023/03/05 11:30:33;;;;;;;19.80;11.80;;;6.10;99.90;;;;;;5090736;28;20470;-78
2023/03/05 11:33:09;;;;;;;16.35;10.63;;;6.30;1.00;;;;;;5092021;28;20382;-80
2023/03/05 11:35:37;;;;;;;17.38;10.30;;;6.40;1.00;;;;;;5091003;28;20406;-77
2023/03/05 11:38:06;;;;;;;17.50;11.17;;;6.20;1.00;;;;;;5089960;28;20495;-77
2023/03/05 11:40:36;;;;;;;18.10;10.90;;;6.50;1.00;;;;;;5090755;28;20397;-77
2023/03/05 11:43:02;;;;;;;17.67;10.80;;;6.60;1.00;;;;;;5092010;28;20859;-77
2023/03/05 11:45:31;;;;;;;17.30;10.98;;;6.50;1.00;;;;;;5091662;28;20408;-78
2023/03/05 11:48:24;;;;;;;17.10;11.30;;;6.70;1.00;;;;;;5091993;28;20378;-78
2023/03/05 11:50:54;;;;;;;21.40;11.15;;;7.10;99.90;;;;;;5092005;28;20381;-78
2023/03/05 11:53:28;;;;;;;19.63;11.70;;;7.10;99.90;;;;;;5089408;28;20465;-78
2023/03/05 11:56:12;;;;;;;16.52;11.43;;;7.10;99.90;;;;;;5091664;28;20381;-77
2023/03/05 11:58:44;;;;;;;18.87;11.00;;;6.90;99.90;;;;;;5091368;28;20930;-77
2023/03/05 12:01:16;;;;;;;18.58;11.50;;;7.30;99.90;;;;;;5090685;28;20425;-77
2023/03/05 12:03:42;;;;;;;17.23;11.25;;;7.50;99.90;;;;;;5089768;28;20378;-77
2023/03/05 12:06:21;;;;;;;18.17;11.67;;;7.60;99.90;;;;;;5091508;28;20518;-78
2023/03/05 12:08:51;;;;;;;15.95;10.75;;;7.00;1.00;;;;;;5091588;28;20444;-78
2023/03/05 12:11:25;;;;;;;14.98;10.10;;;7.10;1.00;;;;;;5091893;28;20390;-77
2023/03/05 12:14:19;;;;;;;15.10;10.63;;;7.40;99.90;;;;;;5089732;28;20398;-78
2023/03/05 12:16:57;;;;;;;19.73;11.20;;;7.50;99.90;;;;;;5092273;28;20409;-78
2023/03/05 12:19:47;;;;;;;15.53;10.70;;;7.30;1.00;;;;;;5092887;28;20429;-78
2023/03/05 12:22:39;;;;;;;15.43;9.88;;;7.40;1.00;;;;;;5090605;28;20776;-78
2023/03/05 12:25:27;;;;;;;17.60;11.07;;;7.60;93.50;;;;;;5090852;28;20910;-78
2023/03/05 12:27:54;;;;;;;16.05;11.07;;;7.10;1.00;;;;;;5092252;28;20460;-78
2023/03/05 12:30:48;;;;;;;15.70;11.15;;;7.20;67.80;;;;;;5090380;28;20382;-78
2023/03/05 12:33:35;;;;;;;16.13;11.23;;;7.20;1.00;;;;;;5091206;28;20408;-78
2023/03/05 12:36:16;;;;;;;14.70;11.30;;;7.20;80.00;;;;;;5092003;28;20386;-78
2023/03/05 12:38:42;;;;;;;19.65;11.77;;;;;;;;;;5090981;28;20402;-78
2023/03/05 12:41:23;;;;;;;19.27;11.25;;;7.50;1.00;;;;;;5091055;28;20386;-78
2023/03/05 12:44:04;;;;;;;15.27;10.75;;;7.30;19.20;;;;;;5091359;28;20378;-78
2023/03/05 12:46:34;;;;;;;16.02;10.60;;;7.20;99.90;;;;;;5089604;28;20422;-78
2023/03/05 12:49:21;;;;;;;21.67;11.70;;;6.80;96.70;;;;;;5092080;28;20415;-78
2023/03/05 12:51:53;;;;;;;19.73;11.30;;;6.80;99.90;;;;;;5084121;28;20418;-78